createdAt,value
2023-02-03T00:00:29.793Z,2.00
2023-02-03T00:01:32.730Z,3.00
2023-02-03T00:02:35.361Z,3.00
2023-02-03T00:03:38.096Z,2.00
2023-02-03T00:04:42.458Z,3.00
2023-02-03T00:05:45.489Z,2.00
2023-02-03T00:06:48.608Z,2.00
2023-02-03T00:07:51.516Z,3.00
2023-02-03T00:09:02.633Z,3.00
2023-02-03T00:10:05.977Z,3.00
2023-02-03T00:11:09.057Z,3.00
2023-02-03T00:12:11.749Z,3.00
2023-02-03T00:13:15.494Z,2.00
2023-02-03T00:14:18.419Z,3.25
2023-02-03T00:15:21.539Z,2.25
2023-02-03T00:16:24.410Z,3.00
2023-02-03T00:17:27.071Z,3.00
2023-02-03T00:18:29.909Z,3.00
2023-02-03T00:19:32.641Z,1.00
2023-02-03T00:20:38.148Z,3.00
2023-02-03T00:21:41.009Z,2.00
2023-02-03T00:22:43.655Z,1.00
2023-02-03T00:23:46.356Z,2.00
2023-02-03T00:24:49.020Z,3.00
2023-02-03T00:25:51.698Z,3.00
2023-02-03T00:26:54.427Z,3.00
2023-02-03T00:27:57.101Z,3.00
2023-02-03T00:29:01.027Z,3.50
2023-02-03T00:30:03.728Z,3.00
2023-02-03T00:31:06.716Z,2.00
2023-02-03T00:32:09.532Z,2.00
2023-02-03T00:33:19.717Z,2.00
2023-02-03T00:34:22.909Z,2.25
2023-02-03T00:35:25.536Z,3.00
2023-02-03T00:36:28.729Z,3.00
2023-02-03T00:37:31.494Z,3.00
2023-02-03T00:38:36.208Z,3.00
2023-02-03T00:39:40.209Z,3.00
2023-02-03T00:40:42.920Z,3.00
2023-02-03T00:41:45.866Z,3.00
2023-02-03T00:42:48.673Z,1.00
2023-02-03T00:43:53.269Z,1.75
2023-02-03T00:44:55.899Z,3.00
2023-02-03T00:45:58.641Z,1.00
2023-02-03T00:47:01.367Z,1.25
2023-02-03T00:48:04.085Z,0.00
2023-02-03T00:49:07.109Z,1.00
2023-02-03T00:50:10.575Z,1.00
2023-02-03T00:51:13.320Z,2.00
2023-02-03T00:52:16.058Z,2.00
2023-02-03T00:53:18.798Z,1.50
2023-02-03T00:54:21.538Z,2.00
2023-02-03T00:55:24.177Z,3.00
2023-02-03T00:56:27.109Z,3.00
2023-02-03T00:57:29.810Z,2.25
2023-02-03T00:58:32.537Z,2.00
2023-02-03T00:59:35.196Z,2.00
2023-02-03T01:00:37.790Z,2.00
2023-02-03T01:01:40.444Z,2.00
2023-02-03T01:02:43.196Z,1.00
2023-02-03T01:03:45.887Z,2.00
2023-02-03T01:04:49.643Z,1.50
2023-02-03T01:05:52.503Z,2.00
2023-02-03T01:06:58.716Z,0.00
2023-02-03T01:08:02.403Z,1.00
2023-02-03T01:09:06.942Z,0.00
2023-02-03T01:10:10.011Z,1.75
2023-02-03T01:11:18.543Z,2.00
2023-02-03T01:12:21.755Z,1.00
2023-02-03T01:13:24.360Z,1.25
2023-02-03T01:14:27.206Z,1.25
2023-02-03T01:15:29.878Z,3.00
2023-02-03T01:16:32.699Z,1.50
2023-02-03T01:17:35.367Z,2.00
2023-02-03T01:18:38.548Z,2.00
2023-02-03T01:19:41.178Z,1.00
2023-02-03T01:20:43.793Z,0.75
2023-02-03T01:21:46.412Z,1.75
2023-02-03T01:22:50.825Z,3.00
2023-02-03T01:23:54.367Z,1.00
2023-02-03T01:24:57.241Z,2.25
2023-02-03T01:26:04.264Z,3.00
2023-02-03T01:27:09.076Z,2.00
2023-02-03T01:28:11.888Z,3.00
2023-02-03T01:29:15.443Z,0.75
2023-02-03T01:30:18.498Z,2.00
2023-02-03T01:31:27.279Z,3.00
2023-02-03T01:32:29.989Z,2.00
2023-02-03T01:33:34.820Z,2.00
2023-02-03T01:34:37.527Z,3.00
2023-02-03T01:35:40.167Z,3.00
2023-02-03T01:36:42.878Z,3.00
2023-02-03T01:37:45.520Z,3.00
2023-02-03T01:38:48.689Z,3.50
2023-02-03T01:39:51.311Z,3.00
2023-02-03T01:40:53.982Z,1.00
2023-02-03T01:42:03.369Z,3.00
2023-02-03T01:43:06.072Z,3.00
2023-02-03T01:44:44.199Z,2.50
2023-02-03T01:45:47.339Z,3.00
2023-02-03T01:46:52.009Z,3.00
2023-02-03T01:47:59.319Z,3.00
2023-02-03T01:49:20.150Z,2.00
2023-02-03T01:50:35.530Z,2.00
2023-02-03T01:51:40.925Z,2.00
2023-02-03T01:52:46.291Z,2.00
2023-02-03T01:53:49.996Z,2.00
2023-02-03T01:54:56.964Z,2.50
2023-02-03T01:56:00.630Z,2.00
2023-02-03T01:57:11.594Z,2.50
2023-02-03T01:58:21.316Z,2.00
2023-02-03T01:59:25.926Z,3.00
2023-02-03T02:00:29.041Z,2.50
2023-02-03T02:01:34.492Z,2.75
2023-02-03T02:02:37.799Z,2.00
2023-02-03T02:03:48.601Z,1.00
2023-02-03T02:04:58.225Z,2.00
2023-02-03T02:06:09.727Z,1.00
2023-02-03T02:07:13.204Z,2.50
2023-02-03T02:08:19.226Z,3.00
2023-02-03T02:09:21.959Z,3.00
2023-02-03T02:10:25.037Z,3.00
2023-02-03T02:11:29.132Z,3.00
2023-02-03T02:12:31.767Z,2.00
2023-02-03T02:13:38.461Z,3.00
2023-02-03T02:14:43.785Z,3.00
2023-02-03T02:15:55.501Z,3.00
2023-02-03T02:17:15.332Z,3.00
2023-02-03T02:18:33.094Z,3.00
2023-02-03T02:19:47.735Z,3.00
2023-02-03T02:20:55.996Z,3.00
2023-02-03T02:22:10.590Z,3.00
2023-02-03T02:23:51.230Z,3.25
2023-02-03T02:25:25.288Z,2.00
2023-02-03T02:26:45.572Z,3.00
2023-02-03T02:28:06.790Z,3.00
2023-02-03T02:29:53.522Z,2.75
2023-02-03T02:31:17.517Z,3.00
2023-02-03T02:32:59.400Z,2.75
2023-02-03T02:34:48.973Z,3.00
2023-02-03T02:36:16.088Z,3.00
2023-02-03T02:37:53.642Z,3.00
2023-02-03T02:39:09.578Z,2.25
2023-02-03T02:40:14.849Z,1.00
2023-02-03T02:41:27.499Z,1.00
2023-02-03T02:42:45.640Z,2.00
2023-02-03T02:44:11.526Z,2.25
2023-02-03T02:45:27.610Z,3.00
2023-02-03T02:47:01.723Z,3.00
2023-02-03T02:48:11.542Z,2.25
2023-02-03T02:49:33.041Z,3.25
2023-02-03T02:50:41.464Z,3.00
2023-02-03T02:51:48.070Z,2.25
2023-02-03T02:52:52.467Z,2.00
2023-02-03T02:53:59.916Z,3.00
2023-02-03T02:55:10.785Z,2.00
2023-02-03T02:56:18.195Z,3.00
2023-02-03T02:57:26.431Z,2.50
2023-02-03T02:58:32.605Z,3.00
2023-02-03T02:59:35.230Z,3.00
2023-02-03T03:00:38.735Z,2.50
2023-02-03T03:01:42.337Z,1.00
2023-02-03T03:02:46.485Z,3.00
2023-02-03T03:03:49.226Z,3.00
2023-02-03T03:04:52.420Z,2.25
2023-02-03T03:06:04.811Z,3.00
2023-02-03T03:07:14.549Z,3.00
2023-02-03T03:08:23.553Z,3.00
2023-02-03T03:09:37.251Z,4.00
2023-02-03T03:10:42.832Z,3.50
2023-02-03T03:11:56.058Z,3.00
2023-02-03T03:13:04.782Z,3.00
2023-02-03T03:14:11.384Z,3.00
2023-02-03T03:15:25.421Z,3.00
2023-02-03T03:16:30.722Z,3.00
2023-02-03T03:17:42.675Z,3.00
2023-02-03T03:18:49.879Z,4.00
2023-02-03T03:19:57.031Z,3.00
2023-02-03T03:21:07.007Z,4.00
2023-02-03T03:22:14.478Z,4.00
2023-02-03T03:23:34.044Z,4.25
2023-02-03T03:24:43.102Z,3.00
2023-02-03T03:25:52.458Z,3.75
2023-02-03T03:27:20.688Z,4.00
2023-02-03T03:28:29.498Z,3.00
2023-02-03T03:29:49.043Z,4.00
2023-02-03T03:30:51.985Z,3.00
2023-02-03T03:31:55.373Z,4.00
2023-02-03T03:33:00.693Z,4.00
2023-02-03T03:34:04.032Z,4.00
2023-02-03T03:35:09.721Z,3.00
2023-02-03T03:36:25.119Z,4.00
2023-02-03T03:37:37.870Z,4.00
2023-02-03T03:38:43.632Z,4.00
2023-02-03T03:39:52.435Z,3.00
2023-02-03T03:41:08.586Z,4.00
2023-02-03T03:42:32.179Z,5.00
2023-02-03T03:43:41.120Z,4.50
2023-02-03T03:44:53.865Z,4.00
2023-02-03T03:46:17.512Z,5.00
2023-02-03T03:47:37.547Z,6.00
2023-02-03T03:48:58.199Z,6.00
2023-02-03T03:50:05.931Z,5.00
2023-02-03T03:51:32.117Z,5.00
2023-02-03T03:52:39.759Z,3.00
2023-02-03T03:53:44.770Z,4.00
2023-02-03T03:54:49.486Z,3.00
2023-02-03T03:55:54.973Z,4.00
2023-02-03T03:57:33.681Z,5.00
2023-02-03T03:58:40.109Z,6.00
2023-02-03T03:59:49.235Z,4.00
2023-02-03T04:00:55.408Z,3.50
2023-02-03T04:01:58.587Z,3.00
2023-02-03T04:03:08.701Z,4.25
2023-02-03T04:04:12.557Z,3.00
2023-02-03T04:05:16.873Z,6.00
2023-02-03T04:06:19.571Z,8.00
2023-02-03T04:07:22.447Z,9.00
2023-02-03T04:08:26.902Z,15.50
2023-02-03T04:09:29.781Z,17.25
2023-02-03T04:10:38.279Z,17.50
2023-02-03T04:12:01.159Z,17.00
2023-02-03T04:13:05.180Z,18.50
2023-02-03T04:14:07.912Z,17.00
2023-02-03T04:15:10.817Z,15.00
2023-02-03T04:16:13.508Z,12.00
2023-02-03T04:17:18.791Z,8.25
2023-02-03T04:18:23.557Z,6.00
2023-02-03T04:19:28.797Z,4.50
2023-02-03T04:20:36.167Z,3.00
2023-02-03T04:21:38.860Z,3.00
2023-02-03T04:22:41.706Z,3.00
2023-02-03T04:23:50.352Z,3.00
2023-02-03T04:24:53.016Z,4.00
2023-02-03T04:25:55.664Z,6.00
2023-02-03T04:26:58.285Z,6.25
2023-02-03T04:28:07.778Z,5.50
2023-02-03T04:29:10.947Z,6.00
2023-02-03T04:30:15.095Z,5.75
2023-02-03T04:31:18.163Z,4.00
2023-02-03T04:32:21.365Z,6.00
2023-02-03T04:33:23.986Z,6.00
2023-02-03T04:34:26.631Z,3.00
2023-02-03T04:35:29.322Z,4.00
2023-02-03T04:36:31.979Z,3.00
2023-02-03T04:37:34.995Z,4.25
2023-02-03T04:38:37.662Z,4.00
2023-02-03T04:39:40.377Z,3.50
2023-02-03T04:40:46.647Z,4.25
2023-02-03T04:41:49.466Z,4.75
2023-02-03T04:42:52.123Z,5.00
2023-02-03T04:43:54.746Z,6.00
2023-02-03T04:44:57.415Z,4.00
2023-02-03T04:46:03.207Z,3.50
2023-02-03T04:47:05.988Z,4.00
2023-02-03T04:48:08.636Z,5.00
2023-02-03T04:49:18.719Z,4.75
2023-02-03T04:50:21.406Z,3.00
2023-02-03T04:51:24.096Z,2.25
2023-02-03T04:52:29.796Z,3.00
2023-02-03T04:53:33.297Z,3.00
2023-02-03T04:54:35.974Z,3.00
2023-02-03T04:55:38.649Z,4.00
2023-02-03T04:56:48.380Z,3.00
2023-02-03T04:57:55.739Z,2.00
2023-02-03T04:58:58.437Z,3.25
2023-02-03T05:00:01.122Z,3.00
2023-02-03T05:01:10.432Z,3.00
2023-02-03T05:02:13.222Z,3.00
2023-02-03T05:03:16.223Z,3.00
2023-02-03T05:04:19.048Z,3.00
2023-02-03T05:05:21.687Z,3.00
2023-02-03T05:06:29.065Z,2.00
2023-02-03T05:07:31.873Z,3.00
2023-02-03T05:08:34.562Z,3.00
2023-02-03T05:09:39.743Z,3.75
2023-02-03T05:10:42.354Z,3.00
2023-02-03T05:11:45.033Z,3.00
2023-02-03T05:12:47.802Z,3.00
2023-02-03T05:13:50.625Z,4.00
2023-02-03T05:14:53.280Z,3.00
2023-02-03T05:15:55.942Z,3.00
2023-02-03T05:16:58.570Z,4.00
2023-02-03T05:18:01.268Z,3.00
2023-02-03T05:19:04.040Z,4.00
2023-02-03T05:20:07.720Z,3.50
2023-02-03T05:21:10.363Z,3.00
2023-02-03T05:22:13.048Z,5.00
2023-02-03T05:23:15.779Z,6.00
2023-02-03T05:24:21.262Z,5.00
2023-02-03T05:25:27.277Z,5.00
2023-02-03T05:26:29.922Z,4.50
2023-02-03T05:27:32.686Z,4.50
2023-02-03T05:28:35.518Z,5.00
2023-02-03T05:29:38.146Z,4.25
2023-02-03T05:30:40.908Z,6.00
2023-02-03T05:31:43.611Z,6.00
2023-02-03T05:32:46.336Z,6.00
2023-02-03T05:33:48.975Z,4.00
2023-02-03T05:34:51.646Z,4.75
2023-02-03T05:35:56.825Z,3.00
2023-02-03T05:36:59.794Z,3.00
2023-02-03T05:38:05.838Z,5.00
2023-02-03T05:39:08.604Z,4.75
2023-02-03T05:40:36.041Z,4.00
2023-02-03T05:41:54.106Z,3.00
2023-02-03T05:42:57.727Z,3.00
2023-02-03T05:44:00.470Z,3.00
2023-02-03T05:45:03.292Z,4.00
2023-02-03T05:46:07.814Z,6.00
2023-02-03T05:47:10.499Z,7.00
2023-02-03T05:48:13.543Z,11.50
2023-02-03T05:49:16.348Z,12.50
2023-02-03T05:50:19.189Z,14.00
2023-02-03T05:51:21.934Z,14.00
2023-02-03T05:52:24.558Z,11.00
2023-02-03T05:53:28.387Z,12.00
2023-02-03T05:54:31.038Z,9.75
2023-02-03T05:55:35.120Z,11.00
2023-02-03T05:56:39.089Z,9.25
2023-02-03T05:57:41.694Z,9.00
2023-02-03T05:58:44.349Z,6.00
2023-02-03T05:59:47.091Z,6.50
2023-02-03T06:00:49.733Z,6.00
2023-02-03T06:01:52.373Z,7.75
2023-02-03T06:02:57.140Z,6.50
2023-02-03T06:04:02.723Z,6.00
2023-02-03T06:05:08.161Z,8.50
2023-02-03T06:06:10.918Z,9.00
2023-02-03T06:07:13.653Z,10.50
2023-02-03T06:08:16.469Z,14.00
2023-02-03T06:09:19.162Z,15.50
2023-02-03T06:10:27.681Z,16.00
2023-02-03T06:11:30.570Z,15.00
2023-02-03T06:12:35.961Z,16.00
2023-02-03T06:13:38.944Z,12.50
2023-02-03T06:14:41.604Z,9.00
2023-02-03T06:15:44.820Z,7.50
2023-02-03T06:16:47.532Z,4.00
2023-02-03T06:17:50.797Z,10.50
2023-02-03T06:18:55.077Z,27.75
2023-02-03T06:19:57.792Z,22.75
2023-02-03T06:21:00.383Z,16.00
2023-02-03T06:22:03.030Z,15.00
2023-02-03T06:23:06.410Z,11.00
2023-02-03T06:24:09.208Z,7.00
2023-02-03T06:25:13.263Z,6.00
2023-02-03T06:26:16.065Z,6.00
2023-02-03T06:27:18.773Z,5.25
2023-02-03T06:28:21.591Z,6.00
2023-02-03T06:29:24.256Z,5.00
2023-02-03T06:30:27.323Z,5.25
2023-02-03T06:31:30.427Z,5.75
2023-02-03T06:32:33.197Z,6.00
2023-02-03T06:33:35.875Z,7.75
2023-02-03T06:34:38.645Z,6.75
2023-02-03T06:35:41.268Z,7.50
2023-02-03T06:36:43.991Z,8.75
2023-02-03T06:37:46.737Z,6.00
2023-02-03T06:38:49.370Z,6.25
2023-02-03T06:39:52.015Z,6.00
2023-02-03T06:40:57.554Z,9.00
2023-02-03T06:42:04.107Z,10.25
2023-02-03T06:43:07.087Z,12.50
2023-02-03T06:44:09.832Z,16.00
2023-02-03T06:45:12.541Z,13.00
2023-02-03T06:46:17.056Z,14.75
2023-02-03T06:47:21.976Z,15.00
2023-02-03T06:48:27.186Z,10.25
2023-02-03T06:49:30.911Z,6.25
2023-02-03T06:50:33.598Z,6.00
2023-02-03T06:51:36.341Z,7.00
2023-02-03T06:52:41.561Z,6.00
2023-02-03T06:53:44.231Z,4.25
2023-02-03T06:54:48.341Z,6.00
2023-02-03T06:55:51.087Z,7.00
2023-02-03T06:56:53.797Z,6.25
2023-02-03T06:57:56.620Z,7.00
2023-02-03T06:59:01.715Z,8.25
2023-02-03T07:00:04.945Z,12.00
2023-02-03T07:01:08.024Z,16.75
2023-02-03T07:02:13.014Z,26.50
2023-02-03T07:03:15.776Z,23.00
2023-02-03T07:04:18.627Z,20.25
2023-02-03T07:05:22.102Z,16.00
2023-02-03T07:06:30.114Z,14.00
2023-02-03T07:07:34.128Z,11.00
2023-02-03T07:08:36.827Z,6.00
2023-02-03T07:09:40.617Z,8.00
2023-02-03T07:10:45.860Z,13.00
2023-02-03T07:11:48.572Z,29.75
2023-02-03T07:12:52.877Z,36.00
2023-02-03T07:13:55.516Z,30.00
2023-02-03T07:14:58.230Z,22.25
2023-02-03T07:16:00.915Z,16.00
2023-02-03T07:17:09.815Z,13.00
2023-02-03T07:18:18.027Z,10.50
2023-02-03T07:19:24.128Z,10.00
2023-02-03T07:20:27.558Z,7.00
2023-02-03T07:21:30.495Z,9.00
2023-02-03T07:22:33.193Z,7.00
2023-02-03T07:23:37.664Z,9.00
2023-02-03T07:24:40.336Z,8.25
2023-02-03T07:25:43.045Z,8.50
2023-02-03T07:26:45.658Z,7.50
2023-02-03T07:27:50.327Z,6.00
2023-02-03T07:28:53.822Z,7.00
2023-02-03T07:29:57.548Z,7.75
2023-02-03T07:31:01.644Z,13.00
2023-02-03T07:32:04.815Z,13.00
2023-02-03T07:33:09.018Z,18.50
2023-02-03T07:34:11.807Z,23.00
2023-02-03T07:35:14.510Z,26.00
2023-02-03T07:36:17.198Z,29.00
2023-02-03T07:37:19.830Z,34.00
2023-02-03T07:38:23.936Z,33.50
2023-02-03T07:39:27.965Z,33.00
2023-02-03T07:40:32.526Z,29.00
2023-02-03T07:41:35.470Z,27.50
2023-02-03T07:42:42.080Z,27.00
2023-02-03T07:43:44.729Z,25.00
2023-02-03T07:44:47.369Z,23.00
2023-02-03T07:45:52.505Z,20.00
2023-02-03T07:46:55.188Z,20.00
2023-02-03T07:47:57.901Z,19.00
2023-02-03T07:49:00.591Z,17.50
2023-02-03T07:50:03.681Z,17.00
2023-02-03T07:51:06.841Z,15.00
2023-02-03T07:52:09.638Z,15.00
2023-02-03T07:53:12.313Z,14.00
2023-02-03T07:54:19.572Z,13.00
2023-02-03T07:55:23.058Z,13.75
2023-02-03T07:56:25.705Z,17.00
2023-02-03T07:57:28.381Z,17.00
2023-02-03T07:58:32.466Z,17.25
2023-02-03T07:59:35.110Z,22.00
2023-02-03T08:00:40.554Z,24.00
2023-02-03T08:01:43.257Z,26.25
2023-02-03T08:02:46.711Z,34.00
2023-02-03T08:03:49.401Z,36.00
2023-02-03T08:04:52.158Z,36.00
2023-02-03T08:05:54.877Z,38.00
2023-02-03T08:06:57.629Z,38.00
2023-02-03T08:08:00.584Z,32.75
2023-02-03T08:09:03.237Z,28.00
2023-02-03T08:10:06.465Z,25.75
2023-02-03T08:11:09.296Z,18.00
2023-02-03T08:12:11.921Z,13.75
2023-02-03T08:13:14.836Z,13.25
2023-02-03T08:14:17.580Z,14.00
2023-02-03T08:15:20.300Z,12.00
2023-02-03T08:16:23.019Z,13.00
2023-02-03T08:17:26.157Z,17.00
2023-02-03T08:18:30.982Z,21.25
2023-02-03T08:19:35.307Z,24.25
2023-02-03T08:20:37.995Z,26.00
2023-02-03T08:21:40.648Z,26.00
2023-02-03T08:22:43.509Z,27.00
2023-02-03T08:23:46.158Z,24.75
2023-02-03T08:24:49.317Z,22.75
2023-02-03T08:25:54.963Z,20.00
2023-02-03T08:26:57.649Z,17.75
2023-02-03T08:28:00.393Z,17.00
2023-02-03T08:29:03.245Z,20.00
2023-02-03T08:30:06.746Z,20.00
2023-02-03T08:31:13.730Z,17.00
2023-02-03T08:32:22.984Z,14.25
2023-02-03T08:33:25.677Z,13.00
2023-02-03T08:34:28.338Z,15.00
2023-02-03T08:35:31.030Z,14.00
2023-02-03T08:36:33.687Z,13.00
2023-02-03T08:37:36.489Z,13.00
2023-02-03T08:38:40.234Z,10.00
2023-02-03T08:39:43.007Z,6.50
2023-02-03T08:40:45.695Z,6.25
2023-02-03T08:41:48.495Z,7.00
2023-02-03T08:42:51.135Z,6.00
2023-02-03T08:43:55.240Z,6.00
2023-02-03T08:44:58.132Z,5.50
2023-02-03T08:46:04.887Z,6.00
2023-02-03T08:47:08.197Z,6.00
2023-02-03T08:48:10.836Z,7.00
2023-02-03T08:49:13.452Z,6.00
2023-02-03T08:50:16.193Z,7.00
2023-02-03T08:51:18.912Z,7.00
2023-02-03T08:52:21.765Z,9.00
2023-02-03T08:53:24.410Z,12.00
2023-02-03T08:54:27.453Z,13.00
2023-02-03T08:55:30.442Z,12.50
2023-02-03T08:56:35.157Z,14.75
2023-02-03T08:57:38.511Z,12.50
2023-02-03T08:58:41.356Z,11.00
2023-02-03T08:59:44.815Z,12.25
2023-02-03T09:00:50.147Z,9.50
2023-02-03T09:01:53.850Z,6.00
2023-02-03T09:02:56.763Z,9.00
2023-02-03T09:03:59.562Z,6.00
2023-02-03T09:05:02.488Z,6.50
2023-02-03T09:06:06.255Z,9.00
2023-02-03T09:07:09.042Z,9.00
2023-02-03T09:08:11.676Z,7.00
2023-02-03T09:09:14.856Z,7.00
2023-02-03T09:10:17.619Z,6.50
2023-02-03T09:11:20.300Z,7.50
2023-02-03T09:12:22.975Z,9.00
2023-02-03T09:13:25.783Z,7.00
2023-02-03T09:14:31.454Z,71.75
2023-02-03T09:15:34.147Z,75.50
2023-02-03T09:16:37.224Z,51.00
2023-02-03T09:17:40.530Z,29.50
2023-02-03T09:18:43.243Z,15.75
2023-02-03T09:19:45.985Z,13.00
2023-02-03T09:20:48.919Z,12.00
2023-02-03T09:21:52.088Z,11.00
2023-02-03T09:22:56.045Z,10.00
2023-02-03T09:24:02.814Z,8.50
2023-02-03T09:25:07.277Z,8.00
2023-02-03T09:26:12.794Z,7.00
2023-02-03T09:27:16.002Z,10.75
2023-02-03T09:28:18.688Z,12.00
2023-02-03T09:29:21.532Z,9.50
2023-02-03T09:30:24.319Z,11.00
2023-02-03T09:31:27.114Z,11.00
2023-02-03T09:32:29.818Z,13.00
2023-02-03T09:33:32.809Z,11.25
2023-02-03T09:34:35.482Z,16.00
2023-02-03T09:35:38.245Z,14.00
2023-02-03T09:36:42.947Z,13.00
2023-02-03T09:37:45.712Z,9.00
2023-02-03T09:38:48.431Z,11.00
2023-02-03T09:39:51.144Z,10.00
2023-02-03T09:41:10.610Z,9.00
2023-02-03T09:42:55.645Z,6.50
2023-02-03T09:44:11.234Z,5.00
2023-02-03T09:45:28.120Z,7.50
2023-02-03T09:46:44.865Z,9.00
2023-02-03T09:47:54.973Z,7.00
2023-02-03T09:49:19.734Z,6.00
2023-02-03T09:50:27.633Z,6.00
2023-02-03T09:51:37.239Z,6.00
2023-02-03T09:52:42.867Z,6.00
2023-02-03T09:53:51.551Z,7.00
2023-02-03T09:55:03.837Z,6.00
2023-02-03T09:56:06.520Z,12.75
2023-02-03T09:57:17.163Z,18.00
2023-02-03T09:58:24.251Z,24.25
2023-02-03T09:59:32.824Z,23.25
2023-02-03T10:00:44.033Z,15.00
2023-02-03T10:02:10.756Z,16.00
2023-02-03T10:03:26.403Z,16.00
2023-02-03T10:04:39.035Z,16.00
2023-02-03T10:05:54.880Z,20.00
2023-02-03T10:07:07.605Z,25.00
2023-02-03T10:08:44.549Z,24.00
2023-02-03T10:09:59.123Z,21.00
2023-02-03T10:11:13.311Z,24.50
2023-02-03T10:12:48.280Z,23.50
2023-02-03T10:14:24.986Z,18.75
2023-02-03T10:15:45.464Z,16.00
2023-02-03T10:17:15.888Z,14.00
2023-02-03T10:18:24.423Z,12.50
2023-02-03T10:19:37.837Z,13.00
2023-02-03T10:20:45.824Z,12.00
2023-02-03T10:21:53.690Z,13.00
2023-02-03T10:23:01.711Z,13.50
2023-02-03T10:24:10.309Z,16.00
2023-02-03T10:25:15.913Z,17.00
2023-02-03T10:26:23.961Z,30.75
2023-02-03T10:27:28.596Z,26.75
2023-02-03T10:28:41.271Z,22.50
2023-02-03T10:29:44.793Z,19.00
2023-02-03T10:30:53.413Z,16.50
2023-02-03T10:31:58.953Z,16.00
2023-02-03T10:33:11.689Z,15.00
2023-02-03T10:34:18.765Z,13.00
2023-02-03T10:35:28.274Z,12.00
2023-02-03T10:36:44.342Z,13.00
2023-02-03T10:37:52.331Z,13.00
2023-02-03T10:39:19.676Z,11.25
2023-02-03T10:40:27.230Z,8.50
2023-02-03T10:41:34.229Z,12.75
2023-02-03T10:42:55.822Z,14.00
2023-02-03T10:43:59.835Z,12.50
2023-02-03T10:45:02.699Z,10.25
2023-02-03T10:46:05.542Z,10.25
2023-02-03T10:47:43.016Z,10.00
2023-02-03T10:48:45.722Z,9.00
2023-02-03T10:49:52.081Z,13.00
2023-02-03T10:50:55.970Z,15.00
2023-02-03T10:52:04.459Z,15.00
2023-02-03T10:53:25.884Z,12.75
2023-02-03T10:54:37.909Z,11.00
2023-02-03T10:55:40.616Z,10.25
2023-02-03T10:56:43.317Z,11.00
2023-02-03T10:57:46.022Z,10.00
2023-02-03T10:58:54.800Z,9.50
2023-02-03T11:00:22.600Z,24.75
2023-02-03T11:01:40.460Z,22.00
2023-02-03T11:02:43.345Z,17.25
2023-02-03T11:04:05.114Z,16.75
2023-02-03T11:05:17.541Z,21.50
2023-02-03T11:06:20.277Z,96.25
2023-02-03T11:07:28.303Z,100.00
2023-02-03T11:08:32.640Z,79.00
2023-02-03T11:09:38.731Z,69.50
2023-02-03T11:10:41.913Z,54.75
2023-02-03T11:11:44.575Z,41.50
2023-02-03T11:12:47.202Z,58.00
2023-02-03T11:13:54.581Z,54.25
2023-02-03T11:14:57.558Z,35.75
2023-02-03T11:16:08.073Z,23.25
2023-02-03T11:17:28.067Z,47.75
2023-02-03T11:18:43.419Z,42.25
2023-02-03T11:19:51.328Z,44.50
2023-02-03T11:20:54.370Z,41.25
2023-02-03T11:21:57.984Z,26.00
2023-02-03T11:23:01.370Z,11.25
2023-02-03T11:24:30.699Z,17.25
2023-02-03T11:25:34.458Z,15.00
2023-02-03T11:26:46.320Z,40.25
2023-02-03T11:27:49.160Z,38.00
2023-02-03T11:28:54.261Z,26.50
2023-02-03T11:30:15.223Z,65.75
2023-02-03T11:31:29.588Z,65.75
2023-02-03T11:32:32.407Z,52.25
2023-02-03T11:33:35.113Z,32.25
2023-02-03T11:34:39.551Z,51.50
2023-02-03T11:35:58.930Z,88.50
2023-02-03T11:37:28.322Z,77.00
2023-02-03T11:38:35.843Z,49.75
2023-02-03T11:39:38.531Z,66.50
2023-02-03T11:40:42.478Z,64.50
2023-02-03T11:41:45.856Z,48.00
2023-02-03T11:42:51.458Z,39.50
2023-02-03T11:43:57.139Z,24.25
2023-02-03T11:45:49.997Z,23.25
2023-02-03T11:46:59.569Z,21.00
2023-02-03T11:48:07.898Z,26.75
2023-02-03T11:49:19.335Z,26.25
2023-02-03T11:50:53.930Z,21.00
2023-02-03T11:52:04.631Z,12.25
2023-02-03T11:53:15.950Z,7.50
2023-02-03T11:54:52.233Z,20.75
2023-02-03T11:55:54.819Z,20.25
2023-02-03T11:57:07.564Z,15.50
2023-02-03T11:58:45.810Z,28.25
2023-02-03T12:00:11.847Z,31.00
2023-02-03T12:01:45.913Z,26.50
2023-02-03T12:03:00.831Z,28.75
2023-02-03T12:04:18.634Z,35.00
2023-02-03T12:05:42.695Z,34.50
2023-02-03T12:06:48.609Z,34.25
2023-02-03T12:08:19.676Z,30.75
2023-02-03T12:09:52.559Z,24.00
2023-02-03T12:11:18.635Z,19.75
2023-02-03T12:12:33.585Z,20.00
2023-02-03T12:14:05.901Z,18.50
2023-02-03T12:15:35.865Z,14.25
2023-02-03T12:17:05.320Z,12.75
2023-02-03T12:18:30.815Z,24.75
2023-02-03T12:19:33.406Z,105.50
2023-02-03T12:20:49.939Z,94.75
2023-02-03T12:22:05.373Z,63.75
2023-02-03T12:23:15.019Z,42.25
2023-02-03T12:24:36.831Z,25.00
2023-02-03T12:26:10.330Z,37.25
2023-02-03T12:27:50.929Z,40.00
2023-02-03T12:28:56.156Z,38.75
2023-02-03T12:30:14.854Z,43.50
2023-02-03T12:31:39.254Z,35.25
2023-02-03T12:33:06.139Z,19.75
2023-02-03T12:34:36.983Z,18.75
2023-02-03T12:35:49.986Z,26.25
2023-02-03T12:36:59.546Z,16.00
2023-02-03T12:38:37.280Z,21.00
2023-02-03T12:39:52.562Z,32.50
2023-02-03T12:41:05.616Z,37.25
2023-02-03T12:42:40.696Z,29.00
2023-02-03T12:43:50.450Z,19.00
2023-02-03T12:44:55.236Z,26.25
2023-02-03T12:46:07.232Z,16.50
2023-02-03T12:47:21.075Z,7.25
2023-02-03T12:48:30.486Z,7.00
2023-02-03T12:50:01.927Z,7.25
2023-02-03T12:51:11.691Z,7.00
2023-02-03T12:52:17.436Z,6.00
2023-02-03T12:53:31.454Z,6.50
2023-02-03T12:54:43.656Z,4.00
2023-02-03T12:55:56.307Z,3.00
2023-02-03T12:57:09.944Z,9.00
2023-02-03T12:58:19.348Z,11.25
2023-02-03T12:59:26.562Z,12.00
2023-02-03T13:00:53.232Z,12.00
2023-02-03T13:02:01.435Z,6.00
2023-02-03T13:03:42.471Z,9.00
2023-02-03T13:04:53.863Z,13.25
2023-02-03T13:06:12.506Z,13.00
2023-02-03T13:07:23.816Z,12.00
2023-02-03T13:08:52.026Z,10.25
2023-02-03T13:10:15.747Z,9.75
2023-02-03T13:11:36.127Z,9.50
2023-02-03T13:12:45.237Z,12.75
2023-02-03T13:13:58.122Z,29.50
2023-02-03T13:15:34.433Z,41.50
2023-02-03T13:16:42.015Z,35.50
2023-02-03T13:17:51.695Z,20.25
2023-02-03T13:18:59.730Z,12.00
2023-02-03T13:20:24.276Z,12.00
2023-02-03T13:21:27.130Z,7.50
2023-02-03T13:22:29.934Z,5.00
2023-02-03T13:23:33.553Z,6.00
2023-02-03T13:24:36.688Z,6.00
2023-02-03T13:25:45.194Z,5.25
2023-02-03T13:27:10.835Z,5.00
2023-02-03T13:28:42.699Z,5.25
2023-02-03T13:30:22.932Z,9.25
2023-02-03T13:32:00.521Z,10.00
2023-02-03T13:33:15.226Z,6.00
2023-02-03T13:34:48.506Z,4.00
2023-02-03T13:36:27.155Z,5.75
2023-02-03T13:37:35.855Z,6.00
2023-02-03T13:39:06.248Z,6.00
2023-02-03T13:40:36.518Z,6.00
2023-02-03T13:42:09.653Z,6.00
2023-02-03T13:43:36.015Z,9.75
2023-02-03T13:44:44.343Z,6.00
2023-02-03T13:45:52.099Z,6.00
2023-02-03T13:46:56.100Z,12.50
2023-02-03T13:48:23.157Z,19.00
2023-02-03T13:49:29.971Z,16.25
2023-02-03T13:50:32.892Z,13.25
2023-02-03T13:51:47.175Z,13.00
2023-02-03T13:52:57.436Z,23.50
2023-02-03T13:54:04.441Z,25.00
2023-02-03T13:55:08.119Z,20.50
2023-02-03T13:56:19.238Z,14.00
2023-02-03T13:57:35.534Z,9.00
2023-02-03T13:58:41.391Z,6.00
2023-02-03T13:59:46.095Z,8.50
2023-02-03T14:00:48.737Z,7.00
2023-02-03T14:01:51.402Z,8.00
2023-02-03T14:02:56.027Z,12.50
2023-02-03T14:03:59.604Z,10.00
2023-02-03T14:05:03.073Z,12.25
2023-02-03T14:06:11.498Z,15.00
2023-02-03T14:07:36.627Z,14.75
2023-02-03T14:08:39.254Z,15.00
2023-02-03T14:09:42.700Z,14.00
2023-02-03T14:10:45.355Z,14.00
2023-02-03T14:11:51.383Z,13.00
2023-02-03T14:12:54.001Z,12.25
2023-02-03T14:14:16.596Z,10.00
2023-02-03T14:15:32.830Z,12.25
2023-02-03T14:16:38.187Z,14.00
2023-02-03T14:17:43.614Z,13.00
2023-02-03T14:18:47.434Z,16.00
2023-02-03T14:19:53.055Z,13.00
2023-02-03T14:21:09.452Z,18.50
2023-02-03T14:22:18.475Z,15.00
2023-02-03T14:23:31.751Z,17.00
2023-02-03T14:24:38.658Z,41.25
2023-02-03T14:25:51.231Z,51.00
2023-02-03T14:26:56.865Z,50.00
2023-02-03T14:28:02.082Z,44.00
2023-02-03T14:29:05.762Z,42.25
2023-02-03T14:30:15.134Z,40.00
2023-02-03T14:31:21.855Z,37.00
2023-02-03T14:32:24.659Z,34.00
2023-02-03T14:33:51.314Z,26.75
2023-02-03T14:34:54.068Z,19.00
2023-02-03T14:35:56.850Z,15.00
2023-02-03T14:37:24.609Z,11.25
2023-02-03T14:38:33.242Z,9.75
2023-02-03T14:40:01.790Z,13.00
2023-02-03T14:41:05.936Z,14.25
2023-02-03T14:42:36.272Z,14.50
2023-02-03T14:43:50.717Z,12.00
2023-02-03T14:44:56.041Z,6.00
2023-02-03T14:46:17.046Z,6.00
2023-02-03T14:47:30.100Z,5.50
2023-02-03T14:48:38.982Z,6.00
2023-02-03T14:50:09.016Z,8.00
2023-02-03T14:51:25.378Z,8.00
2023-02-03T14:53:06.375Z,7.00
2023-02-03T14:54:50.425Z,6.00
2023-02-03T14:56:20.867Z,5.50
2023-02-03T14:57:44.940Z,7.25
2023-02-03T14:58:55.745Z,8.75